Time,TemperatureF,DewpointF,PressureIn,WindDirection,WindDirectionDegrees,WindSpeedMPH,WindSpeedGustMPH,Humidity,HourlyPrecipIn,Conditions,Clouds,dailyrainin,SoftwareType,DateUTC
2013-11-09 00:03:00,38.0,34.0,29.60,SSE,166,1.0,2.0,85,0.01,,,0.00,Meteo,2013-11-09 06:03:00,
2013-11-09 00:08:00,38.0,34.0,29.60,SE,129,0.0,2.0,85,0.01,,,0.00,Meteo,2013-11-09 06:08:00,
2013-11-09 00:13:00,38.0,34.0,29.60,ESE,115,0.0,1.0,86,0.01,,,0.00,Meteo,2013-11-09 06:13:00,
2013-11-09 00:18:00,38.0,34.0,29.60,SSE,159,0.0,1.0,86,0.01,,,0.00,Meteo,2013-11-09 06:18:00,
2013-11-09 00:23:00,38.0,34.0,29.60,North,0,0.0,0.0,87,0.01,,,0.00,Meteo,2013-11-09 06:23:00,
2013-11-09 00:28:00,38.0,35.0,29.59,SE,140,1.0,2.0,88,0.02,,,0.01,Meteo,2013-11-09 06:28:00,
2013-11-09 00:33:00,38.0,35.0,29.59,North,0,0.0,0.0,88,0.02,,,0.01,Meteo,2013-11-09 06:33:00,
2013-11-09 00:38:00,38.0,35.0,29.59,SE,140,0.0,2.0,88,0.03,,,0.02,Meteo,2013-11-09 06:38:00,
2013-11-09 00:43:00,37.0,34.0,29.59,North,0,0.0,0.0,89,0.03,,,0.02,Meteo,2013-11-09 06:43:00,
2013-11-09 00:48:00,37.0,34.0,29.58,North,0,0.0,0.0,89,0.03,,,0.02,Meteo,2013-11-09 06:48:00,
2013-11-09 00:53:00,37.0,34.0,29.58,North,0,0.0,0.0,89,0.02,,,0.02,Meteo,2013-11-09 06:53:00,
2013-11-09 00:58:00,37.0,34.0,29.58,SE,138,0.0,1.0,90,0.02,,,0.02,Meteo,2013-11-09 06:58:00,
2013-11-09 01:03:00,37.0,34.0,29.58,North,0,0.0,0.0,90,0.02,,,0.02,Meteo,2013-11-09 07:03:00,
2013-11-09 01:09:00,37.0,34.0,29.57,North,0,0.0,0.0,90,0.02,,,0.02,Meteo,2013-11-09 07:09:00,
2013-11-09 01:14:00,37.0,34.0,29.57,North,0,0.0,0.0,90,0.02,,,0.02,Meteo,2013-11-09 07:14:00,
2013-11-09 01:19:00,37.0,34.0,29.57,North,0,0.0,0.0,90,0.02,,,0.02,Meteo,2013-11-09 07:19:00,
2013-11-09 01:24:00,37.0,35.0,29.57,North,0,0.0,0.0,91,0.02,,,0.02,Meteo,2013-11-09 07:24:00,
2013-11-09 01:29:00,37.0,35.0,29.56,SSE,155,1.0,3.0,91,0.01,,,0.02,Meteo,2013-11-09 07:29:00,
2013-11-09 01:34:00,37.0,35.0,29.56,SE,126,1.0,2.0,91,0.01,,,0.02,Meteo,2013-11-09 07:34:00,
2013-11-09 01:39:00,37.0,35.0,29.56,North,0,0.0,0.0,91,0.00,,,0.02,Meteo,2013-11-09 07:39:00,
2013-11-09 01:44:00,37.0,35.0,29.56,SE,145,0.0,1.0,91,0.00,,,0.02,Meteo,2013-11-09 07:44:00,
2013-11-09 01:49:00,37.0,35.0,29.56,SE,145,0.0,1.0,91,0.00,,,0.02,Meteo,2013-11-09 07:49:00,
2013-11-09 01:54:00,37.0,35.0,29.56,North,0,0.0,0.0,91,0.00,,,0.02,Meteo,2013-11-09 07:54:00,
2013-11-09 01:59:00,37.0,35.0,29.56,SE,145,0.0,2.0,92,0.00,,,0.02,Meteo,2013-11-09 07:59:00,
2013-11-09 02:04:00,37.0,35.0,29.55,North,0,0.0,0.0,92,0.00,,,0.02,Meteo,2013-11-09 08:04:00,
2013-11-09 02:09:00,37.0,35.0,29.55,SSE,156,0.0,1.0,92,0.00,,,0.02,Meteo,2013-11-09 08:09:00,
2013-11-09 02:14:00,37.0,35.0,29.55,North,0,0.0,0.0,92,0.01,,,0.03,Meteo,2013-11-09 08:14:00,
2013-11-09 02:19:00,37.0,35.0,29.55,North,0,0.0,0.0,92,0.01,,,0.03,Meteo,2013-11-09 08:19:00,
2013-11-09 02:24:00,37.0,35.0,29.55,North,0,0.0,0.0,92,0.01,,,0.03,Meteo,2013-11-09 08:24:00,
2013-11-09 02:29:00,37.0,35.0,29.55,North,0,0.0,0.0,92,0.01,,,0.03,Meteo,2013-11-09 08:29:00,
2013-11-09 02:34:00,37.0,35.0,29.55,South,170,0.0,1.0,92,0.01,,,0.03,Meteo,2013-11-09 08:34:00,
2013-11-09 02:39:00,37.0,35.0,29.55,North,0,0.0,0.0,92,0.01,,,0.03,Meteo,2013-11-09 08:39:00,
2013-11-09 02:44:00,37.0,35.0,29.55,North,0,0.0,0.0,92,0.01,,,0.03,Meteo,2013-11-09 08:44:00,
2013-11-09 02:49:00,37.0,35.0,29.54,North,0,0.0,0.0,93,0.01,,,0.03,Meteo,2013-11-09 08:49:00,
2013-11-09 02:54:00,37.0,35.0,29.54,North,0,0.0,0.0,93,0.01,,,0.03,Meteo,2013-11-09 08:54:00,
2013-11-09 02:59:00,37.0,35.0,29.54,North,0,0.0,0.0,93,0.01,,,0.03,Meteo,2013-11-09 08:59:00,
2013-11-09 03:04:00,37.0,35.0,29.54,North,0,0.0,0.0,93,0.01,,,0.03,Meteo,2013-11-09 09:04:00,
2013-11-09 03:09:00,37.0,35.0,29.54,North,0,0.0,0.0,93,0.01,,,0.03,Meteo,2013-11-09 09:09:00,
2013-11-09 03:14:00,37.0,35.0,29.54,North,0,0.0,0.0,93,0.00,,,0.03,Meteo,2013-11-09 09:14:00,
2013-11-09 03:19:00,37.0,35.0,29.54,North,0,0.0,0.0,93,0.00,,,0.03,Meteo,2013-11-09 09:19:00,
2013-11-09 03:24:00,37.0,35.0,29.54,North,0,0.0,0.0,93,0.00,,,0.03,Meteo,2013-11-09 09:24:00,
2013-11-09 03:29:00,37.0,35.0,29.54,North,0,0.0,0.0,93,0.00,,,0.03,Meteo,2013-11-09 09:29:00,
2013-11-09 03:34:00,37.0,35.0,29.54,North,0,0.0,0.0,93,0.00,,,0.03,Meteo,2013-11-09 09:34:00,
2013-11-09 03:39:00,37.0,35.0,29.54,North,0,0.0,0.0,93,0.00,,,0.03,Meteo,2013-11-09 09:39:00,
2013-11-09 03:44:00,37.0,35.0,29.54,North,0,0.0,0.0,93,0.00,,,0.03,Meteo,2013-11-09 09:44:00,
2013-11-09 03:49:00,37.0,35.0,29.54,North,0,0.0,0.0,93,0.00,,,0.03,Meteo,2013-11-09 09:49:00,
2013-11-09 03:54:00,37.0,35.0,29.54,North,0,0.0,0.0,93,0.00,,,0.03,Meteo,2013-11-09 09:54:00,
2013-11-09 03:59:00,37.0,35.0,29.54,North,0,0.0,0.0,94,0.00,,,0.03,Meteo,2013-11-09 09:59:00,
2013-11-09 04:04:00,37.0,35.0,29.54,North,0,0.0,0.0,93,0.00,,,0.03,Meteo,2013-11-09 10:04:00,
2013-11-09 04:09:00,37.0,35.0,29.54,North,0,0.0,0.0,94,0.00,,,0.03,Meteo,2013-11-09 10:09:00,
2013-11-09 04:14:00,37.0,35.0,29.54,North,0,0.0,0.0,94,0.00,,,0.03,Meteo,2013-11-09 10:14:00,
2013-11-09 04:19:00,37.0,35.0,29.54,North,0,0.0,0.0,94,0.00,,,0.03,Meteo,2013-11-09 10:19:00,
2013-11-09 04:24:00,37.0,35.0,29.54,North,0,0.0,0.0,94,0.00,,,0.03,Meteo,2013-11-09 10:24:00,
2013-11-09 04:29:00,37.0,35.0,29.54,North,0,0.0,0.0,94,0.00,,,0.03,Meteo,2013-11-09 10:29:00,
2013-11-09 04:34:00,37.0,35.0,29.54,North,0,0.0,0.0,94,0.00,,,0.03,Meteo,2013-11-09 10:34:00,
2013-11-09 04:39:00,37.0,35.0,29.55,North,0,0.0,0.0,94,0.00,,,0.03,Meteo,2013-11-09 10:39:00,
2013-11-09 04:44:00,37.0,35.0,29.55,North,0,0.0,0.0,94,0.00,,,0.03,Meteo,2013-11-09 10:44:00,
2013-11-09 04:49:00,37.0,35.0,29.55,WSW,251,0.0,1.0,94,0.00,,,0.03,Meteo,2013-11-09 10:49:00,
2013-11-09 04:54:00,37.0,35.0,29.55,WSW,251,0.0,1.0,94,0.00,,,0.03,Meteo,2013-11-09 10:54:00,
2013-11-09 04:59:00,37.0,35.0,29.55,SW,216,1.0,4.0,94,0.00,,,0.03,Meteo,2013-11-09 10:59:00,
2013-11-09 05:04:00,37.0,35.0,29.55,SW,214,2.0,4.0,94,0.00,,,0.03,Meteo,2013-11-09 11:04:00,
2013-11-09 05:09:00,37.0,35.0,29.55,SSW,205,3.0,4.0,94,0.00,,,0.03,Meteo,2013-11-09 11:09:00,
2013-11-09 05:14:00,38.0,36.0,29.55,SW,219,2.0,4.0,94,0.00,,,0.03,Meteo,2013-11-09 11:14:00,
2013-11-09 05:19:00,38.0,36.0,29.55,SSW,209,3.0,5.0,94,0.00,,,0.03,Meteo,2013-11-09 11:19:00,
2013-11-09 05:24:00,38.0,36.0,29.55,SSW,196,3.0,5.0,94,0.00,,,0.03,Meteo,2013-11-09 11:24:00,
2013-11-09 05:29:00,38.0,36.0,29.55,SSW,200,3.0,5.0,94,0.00,,,0.03,Meteo,2013-11-09 11:29:00,
2013-11-09 05:34:00,38.0,36.0,29.55,SW,222,1.0,2.0,94,0.00,,,0.03,Meteo,2013-11-09 11:34:00,
2013-11-09 05:39:00,38.0,36.0,29.56,West,268,1.0,1.0,93,0.00,,,0.03,Meteo,2013-11-09 11:39:00,
2013-11-09 05:44:00,38.0,36.0,29.56,SW,229,1.0,2.0,93,0.00,,,0.03,Meteo,2013-11-09 11:44:00,
2013-11-09 05:50:00,38.0,36.0,29.56,SSW,211,1.0,3.0,93,0.00,,,0.03,Meteo,2013-11-09 11:50:00,
2013-11-09 05:55:00,38.0,36.0,29.56,WSW,249,1.0,5.0,93,0.00,,,0.03,Meteo,2013-11-09 11:55:00,
2013-11-09 06:00:00,38.0,36.0,29.56,SSW,212,2.0,4.0,93,0.00,,,0.03,Meteo,2013-11-09 12:00:00,
2013-11-09 06:05:00,38.0,36.0,29.57,WSW,244,3.0,6.0,93,0.00,,,0.03,Meteo,2013-11-09 12:05:00,
2013-11-09 06:10:00,38.0,36.0,29.57,SSW,213,1.0,2.0,92,0.00,,,0.03,Meteo,2013-11-09 12:10:00,
2013-11-09 06:15:00,38.0,36.0,29.57,WSW,256,1.0,3.0,92,0.00,,,0.03,Meteo,2013-11-09 12:15:00,
2013-11-09 06:20:00,38.0,36.0,29.57,SW,226,2.0,5.0,91,0.00,,,0.03,Meteo,2013-11-09 12:20:00,
2013-11-09 06:25:00,38.0,36.0,29.57,SW,233,3.0,7.0,92,0.00,,,0.03,Meteo,2013-11-09 12:25:00,
2013-11-09 06:30:00,38.0,36.0,29.57,WSW,237,5.0,12.0,92,0.00,,,0.03,Meteo,2013-11-09 12:30:00,
2013-11-09 06:36:00,38.0,36.0,29.57,SW,235,3.0,9.0,91,0.00,,,0.03,Meteo,2013-11-09 12:36:00,
2013-11-09 06:41:00,38.0,36.0,29.58,SSW,213,2.0,6.0,91,0.00,,,0.03,Meteo,2013-11-09 12:41:00,
2013-11-09 06:46:00,38.0,36.0,29.58,West,264,2.0,4.0,91,0.00,,,0.03,Meteo,2013-11-09 12:46:00,
2013-11-09 06:51:00,38.0,36.0,29.58,SW,215,4.0,7.0,91,0.00,,,0.03,Meteo,2013-11-09 12:51:00,
2013-11-09 06:56:00,38.0,36.0,29.58,SW,234,2.0,6.0,91,0.00,,,0.03,Meteo,2013-11-09 12:56:00,
2013-11-09 07:01:00,38.0,36.0,29.59,SW,229,2.0,4.0,91,0.00,,,0.03,Meteo,2013-11-09 13:01:00,
2013-11-09 07:06:00,38.0,36.0,29.59,SW,227,1.0,3.0,91,0.00,,,0.03,Meteo,2013-11-09 13:06:00,
2013-11-09 07:11:00,38.0,36.0,29.59,SSW,194,1.0,2.0,91,0.00,,,0.03,Meteo,2013-11-09 13:11:00,
2013-11-09 07:16:00,38.0,36.0,29.59,SW,230,3.0,6.0,91,0.00,,,0.03,Meteo,2013-11-09 13:16:00,
2013-11-09 07:21:00,38.0,36.0,29.59,SW,229,4.0,9.0,91,0.00,,,0.03,Meteo,2013-11-09 13:21:00,
2013-11-09 07:26:00,38.0,36.0,29.59,WSW,238,3.0,5.0,91,0.00,,,0.03,Meteo,2013-11-09 13:26:00,
2013-11-09 07:31:00,38.0,36.0,29.60,WSW,239,2.0,3.0,91,0.00,,,0.03,Meteo,2013-11-09 13:31:00,
2013-11-09 07:36:00,38.0,35.0,29.60,WSW,250,1.0,4.0,90,0.00,,,0.03,Meteo,2013-11-09 13:36:00,
2013-11-09 07:41:00,38.0,35.0,29.60,WSW,239,3.0,5.0,90,0.00,,,0.03,Meteo,2013-11-09 13:41:00,
2013-11-09 07:46:00,38.0,35.0,29.60,SW,220,1.0,2.0,90,0.00,,,0.03,Meteo,2013-11-09 13:46:00,
2013-11-09 07:51:00,38.0,35.0,29.61,SW,214,2.0,3.0,90,0.00,,,0.03,Meteo,2013-11-09 13:51:00,
2013-11-09 07:56:00,38.0,35.0,29.61,SW,230,3.0,5.0,90,0.00,,,0.03,Meteo,2013-11-09 13:56:00,
2013-11-09 08:01:00,38.0,35.0,29.61,SW,229,2.0,4.0,90,0.00,,,0.03,Meteo,2013-11-09 14:01:00,
2013-11-09 08:06:00,38.0,35.0,29.61,SW,216,4.0,6.0,90,0.00,,,0.03,Meteo,2013-11-09 14:06:00,
2013-11-09 08:11:00,38.0,35.0,29.61,SW,225,3.0,5.0,90,0.00,,,0.03,Meteo,2013-11-09 14:11:00,
2013-11-09 08:16:00,38.0,35.0,29.61,SW,227,1.0,2.0,90,0.00,,,0.03,Meteo,2013-11-09 14:16:00,
2013-11-09 08:21:00,38.0,35.0,29.61,SW,231,4.0,8.0,89,0.00,,,0.03,Meteo,2013-11-09 14:21:00,
2013-11-09 08:26:00,38.0,35.0,29.61,SW,228,5.0,10.0,90,0.00,,,0.03,Meteo,2013-11-09 14:26:00,
2013-11-09 08:31:00,38.0,35.0,29.62,SW,235,4.0,7.0,89,0.00,,,0.03,Meteo,2013-11-09 14:31:00,
2013-11-09 08:36:00,38.0,35.0,29.62,SW,227,3.0,6.0,89,0.00,,,0.03,Meteo,2013-11-09 14:36:00,
2013-11-09 08:41:00,38.0,35.0,29.62,SW,231,4.0,7.0,88,0.00,,,0.03,Meteo,2013-11-09 14:41:00,
2013-11-09 08:46:00,38.0,35.0,29.62,SW,226,4.0,6.0,88,0.00,,,0.03,Meteo,2013-11-09 14:46:00,
2013-11-09 08:51:00,38.0,35.0,29.62,WSW,257,4.0,6.0,88,0.00,,,0.03,Meteo,2013-11-09 14:51:00,
2013-11-09 08:56:00,38.0,35.0,29.62,SW,224,3.0,7.0,88,0.00,,,0.03,Meteo,2013-11-09 14:56:00,
2013-11-09 09:01:00,38.0,35.0,29.62,WSW,240,4.0,6.0,88,0.00,,,0.03,Meteo,2013-11-09 15:01:00,
2013-11-09 09:06:00,38.0,35.0,29.62,SW,225,4.0,6.0,88,0.00,,,0.03,Meteo,2013-11-09 15:06:00,
2013-11-09 09:11:00,38.0,34.0,29.63,SW,219,5.0,8.0,87,0.00,,,0.03,Meteo,2013-11-09 15:11:00,
2013-11-09 09:16:00,38.0,34.0,29.63,WSW,253,3.0,7.0,87,0.00,,,0.03,Meteo,2013-11-09 15:16:00,
2013-11-09 09:21:00,38.0,34.0,29.63,West,271,1.0,5.0,87,0.00,,,0.03,Meteo,2013-11-09 15:21:00,
2013-11-09 09:26:00,38.0,34.0,29.63,SW,218,2.0,5.0,87,0.00,,,0.03,Meteo,2013-11-09 15:26:00,
2013-11-09 09:31:00,38.0,34.0,29.64,SW,226,3.0,4.0,87,0.00,,,0.03,Meteo,2013-11-09 15:31:00,
2013-11-09 09:36:00,38.0,35.0,29.64,SW,222,3.0,7.0,88,0.00,,,0.03,Meteo,2013-11-09 15:36:00,
2013-11-09 09:41:00,38.0,35.0,29.64,SSW,208,3.0,5.0,88,0.00,,,0.03,Meteo,2013-11-09 15:41:00,
2013-11-09 09:46:00,38.0,35.0,29.64,WSW,238,4.0,10.0,88,0.00,,,0.03,Meteo,2013-11-09 15:46:00,
2013-11-09 09:51:00,38.0,34.0,29.65,SW,215,3.0,4.0,87,0.00,,,0.03,Meteo,2013-11-09 15:51:00,
2013-11-09 09:56:00,38.0,35.0,29.65,WSW,247,3.0,8.0,88,0.00,,,0.03,Meteo,2013-11-09 15:56:00,
2013-11-09 10:01:00,38.0,35.0,29.65,WSW,241,2.0,5.0,88,0.00,,,0.03,Meteo,2013-11-09 16:01:00,
2013-11-09 10:06:00,38.0,35.0,29.65,WSW,250,2.0,5.0,88,0.00,,,0.03,Meteo,2013-11-09 16:06:00,
2013-11-09 10:11:00,38.0,35.0,29.65,SW,225,2.0,5.0,88,0.00,,,0.03,Meteo,2013-11-09 16:11:00,
2013-11-09 10:16:00,38.0,35.0,29.65,SW,234,3.0,7.0,88,0.00,,,0.03,Meteo,2013-11-09 16:16:00,
2013-11-09 10:21:00,38.0,35.0,29.66,SW,226,3.0,5.0,88,0.00,,,0.03,Meteo,2013-11-09 16:21:00,
2013-11-09 10:26:00,38.0,35.0,29.66,WSW,256,3.0,6.0,88,0.00,,,0.03,Meteo,2013-11-09 16:26:00,
2013-11-09 10:31:00,38.0,35.0,29.67,SSW,196,3.0,7.0,88,0.00,,,0.03,Meteo,2013-11-09 16:31:00,
2013-11-09 10:36:00,38.0,35.0,29.67,WNW,298,2.0,5.0,88,0.00,,,0.03,Meteo,2013-11-09 16:36:00,
2013-11-09 10:41:00,38.0,35.0,29.67,WSW,240,5.0,11.0,88,0.00,,,0.03,Meteo,2013-11-09 16:41:00,
2013-11-09 10:46:00,38.0,34.0,29.67,West,272,4.0,7.0,87,0.00,,,0.03,Meteo,2013-11-09 16:46:00,
2013-11-09 10:51:00,38.0,34.0,29.67,WSW,246,4.0,6.0,87,0.00,,,0.03,Meteo,2013-11-09 16:51:00,
2013-11-09 10:56:00,38.0,34.0,29.67,WSW,241,4.0,8.0,87,0.00,,,0.03,Meteo,2013-11-09 16:56:00,
2013-11-09 11:01:00,38.0,34.0,29.67,SW,228,3.0,4.0,87,0.00,,,0.03,Meteo,2013-11-09 17:01:00,
2013-11-09 11:06:00,38.0,34.0,29.68,WSW,258,2.0,5.0,87,0.00,,,0.03,Meteo,2013-11-09 17:06:00,
2013-11-09 11:11:00,38.0,34.0,29.68,SW,230,3.0,6.0,87,0.00,,,0.03,Meteo,2013-11-09 17:11:00,
2013-11-09 11:16:00,38.0,34.0,29.68,West,275,2.0,5.0,87,0.00,,,0.03,Meteo,2013-11-09 17:16:00,
2013-11-09 11:21:00,38.0,35.0,29.68,WSW,238,3.0,5.0,88,0.00,,,0.03,Meteo,2013-11-09 17:21:00,
2013-11-09 11:26:00,38.0,34.0,29.68,SW,216,2.0,4.0,87,0.00,,,0.03,Meteo,2013-11-09 17:26:00,
2013-11-09 11:31:00,38.0,35.0,29.68,WSW,237,3.0,4.0,88,0.00,,,0.03,Meteo,2013-11-09 17:31:00,
2013-11-09 11:36:00,38.0,35.0,29.68,WSW,251,4.0,6.0,89,0.00,,,0.03,Meteo,2013-11-09 17:36:00,
2013-11-09 11:41:00,38.0,35.0,29.68,SW,234,4.0,9.0,89,0.00,,,0.03,Meteo,2013-11-09 17:41:00,
2013-11-09 11:46:00,38.0,35.0,29.69,West,263,4.0,6.0,89,0.00,,,0.03,Meteo,2013-11-09 17:46:00,
2013-11-09 11:51:00,38.0,35.0,29.68,SSW,209,2.0,4.0,89,0.00,,,0.03,Meteo,2013-11-09 17:51:00,
2013-11-09 11:56:00,38.0,35.0,29.69,WSW,243,2.0,7.0,89,0.01,,,0.04,Meteo,2013-11-09 17:56:00,
2013-11-09 12:01:00,38.0,35.0,29.69,West,262,4.0,6.0,89,0.01,,,0.04,Meteo,2013-11-09 18:01:00,
2013-11-09 12:06:00,38.0,35.0,29.69,WSW,245,2.0,5.0,89,0.01,,,0.04,Meteo,2013-11-09 18:06:00,
2013-11-09 12:11:00,38.0,35.0,29.69,WSW,257,3.0,6.0,88,0.01,,,0.04,Meteo,2013-11-09 18:11:00,
2013-11-09 12:16:00,38.0,35.0,29.69,West,265,2.0,4.0,89,0.01,,,0.04,Meteo,2013-11-09 18:16:00,
2013-11-09 12:21:00,38.0,35.0,29.69,West,261,1.0,4.0,88,0.01,,,0.04,Meteo,2013-11-09 18:21:00,
2013-11-09 12:26:00,39.0,36.0,29.69,WNW,296,3.0,7.0,88,0.01,,,0.04,Meteo,2013-11-09 18:26:00,
2013-11-09 12:31:00,39.0,36.0,29.69,WSW,250,2.0,9.0,88,0.01,,,0.04,Meteo,2013-11-09 18:31:00,
2013-11-09 12:36:00,39.0,36.0,29.69,WSW,237,2.0,5.0,88,0.01,,,0.04,Meteo,2013-11-09 18:36:00,
2013-11-09 12:41:00,39.0,36.0,29.70,WSW,252,3.0,5.0,88,0.01,,,0.04,Meteo,2013-11-09 18:41:00,
2013-11-09 12:46:00,39.0,35.0,29.70,West,264,4.0,10.0,86,0.01,,,0.04,Meteo,2013-11-09 18:46:00,
2013-11-09 12:51:00,39.0,35.0,29.70,SW,223,2.0,4.0,87,0.01,,,0.04,Meteo,2013-11-09 18:51:00,
2013-11-09 12:56:00,39.0,35.0,29.70,SW,231,2.0,7.0,86,0.00,,,0.04,Meteo,2013-11-09 18:56:00,
2013-11-09 13:01:00,39.0,35.0,29.71,WSW,239,3.0,6.0,85,0.00,,,0.04,Meteo,2013-11-09 19:01:00,
2013-11-09 13:06:00,39.0,35.0,29.71,SW,229,2.0,6.0,85,0.00,,,0.04,Meteo,2013-11-09 19:06:00,
2013-11-09 13:11:00,39.0,35.0,29.71,SW,228,3.0,5.0,85,0.00,,,0.04,Meteo,2013-11-09 19:11:00,
2013-11-09 13:16:00,39.0,35.0,29.71,SSW,202,2.0,7.0,84,0.00,,,0.04,Meteo,2013-11-09 19:16:00,
2013-11-09 13:21:00,39.0,35.0,29.72,SW,232,4.0,6.0,84,0.00,,,0.04,Meteo,2013-11-09 19:21:00,
2013-11-09 13:26:00,39.0,34.0,29.72,West,265,3.0,7.0,82,0.00,,,0.04,Meteo,2013-11-09 19:26:00,
2013-11-09 13:31:00,39.0,34.0,29.72,WSW,240,1.0,3.0,82,0.00,,,0.04,Meteo,2013-11-09 19:31:00,
2013-11-09 13:36:00,39.0,34.0,29.72,WSW,242,2.0,5.0,82,0.00,,,0.04,Meteo,2013-11-09 19:36:00,
2013-11-09 13:41:00,39.0,34.0,29.72,SW,221,4.0,8.0,81,0.00,,,0.04,Meteo,2013-11-09 19:41:00,
2013-11-09 13:46:00,39.0,34.0,29.73,SW,229,4.0,7.0,81,0.00,,,0.04,Meteo,2013-11-09 19:46:00,
2013-11-09 13:51:00,39.0,33.0,29.73,West,265,2.0,4.0,80,0.00,,,0.04,Meteo,2013-11-09 19:51:00,
2013-11-09 13:56:00,39.0,33.0,29.73,SSW,209,2.0,4.0,80,0.00,,,0.04,Meteo,2013-11-09 19:56:00,
2013-11-09 14:01:00,39.0,33.0,29.73,West,265,2.0,3.0,79,0.00,,,0.04,Meteo,2013-11-09 20:01:00,
2013-11-09 14:06:00,40.0,34.0,29.73,West,265,2.0,6.0,79,0.00,,,0.04,Meteo,2013-11-09 20:06:00,
2013-11-09 14:11:00,39.0,33.0,29.74,WSW,258,3.0,14.0,79,0.00,,,0.04,Meteo,2013-11-09 20:11:00,
2013-11-09 14:16:00,39.0,33.0,29.74,West,259,6.0,12.0,79,0.00,,,0.04,Meteo,2013-11-09 20:16:00,
2013-11-09 14:21:00,39.0,33.0,29.74,WSW,249,2.0,5.0,78,0.00,,,0.04,Meteo,2013-11-09 20:21:00,
2013-11-09 14:26:00,39.0,33.0,29.74,SW,234,1.0,3.0,80,0.00,,,0.04,Meteo,2013-11-09 20:26:00,
2013-11-09 14:31:00,40.0,34.0,29.74,SSW,212,2.0,9.0,78,0.00,,,0.04,Meteo,2013-11-09 20:31:00,
2013-11-09 14:36:00,40.0,34.0,29.74,SW,222,1.0,10.0,78,0.00,,,0.04,Meteo,2013-11-09 20:36:00,
2013-11-09 14:41:00,40.0,34.0,29.75,West,270,1.0,2.0,78,0.00,,,0.04,Meteo,2013-11-09 20:41:00,
2013-11-09 14:46:00,40.0,34.0,29.75,West,265,3.0,7.0,78,0.00,,,0.04,Meteo,2013-11-09 20:46:00,
2013-11-09 14:51:00,40.0,33.0,29.75,SW,232,3.0,7.0,77,0.00,,,0.04,Meteo,2013-11-09 20:51:00,
2013-11-09 14:56:00,40.0,34.0,29.75,West,264,2.0,5.0,78,0.00,,,0.04,Meteo,2013-11-09 20:56:00,
2013-11-09 15:01:00,40.0,33.0,29.76,WSW,245,2.0,6.0,77,0.00,,,0.04,Meteo,2013-11-09 21:01:00,
2013-11-09 15:06:00,40.0,33.0,29.76,West,274,4.0,10.0,76,0.00,,,0.04,Meteo,2013-11-09 21:06:00,
2013-11-09 15:11:00,40.0,33.0,29.76,WSW,241,4.0,7.0,76,0.00,,,0.04,Meteo,2013-11-09 21:11:00,
2013-11-09 15:16:00,40.0,33.0,29.77,SW,214,5.0,8.0,76,0.00,,,0.04,Meteo,2013-11-09 21:16:00,
2013-11-09 15:21:00,40.0,33.0,29.77,SW,224,3.0,6.0,77,0.00,,,0.04,Meteo,2013-11-09 21:21:00,
2013-11-09 15:26:00,40.0,33.0,29.77,SW,221,5.0,19.0,77,0.00,,,0.04,Meteo,2013-11-09 21:26:00,
2013-11-09 15:31:00,40.0,33.0,29.78,WSW,250,5.0,9.0,77,0.00,,,0.04,Meteo,2013-11-09 21:31:00,
2013-11-09 15:36:00,40.0,33.0,29.78,WSW,252,2.0,4.0,76,0.00,,,0.04,Meteo,2013-11-09 21:36:00,
2013-11-09 15:41:00,40.0,33.0,29.78,WSW,244,6.0,15.0,77,0.00,,,0.04,Meteo,2013-11-09 21:41:00,
2013-11-09 15:46:00,40.0,33.0,29.78,West,262,4.0,8.0,76,0.00,,,0.04,Meteo,2013-11-09 21:46:00,
2013-11-09 15:51:00,40.0,33.0,29.78,WSW,245,4.0,6.0,77,0.00,,,0.04,Meteo,2013-11-09 21:51:00,
2013-11-09 15:56:00,40.0,33.0,29.78,SSW,205,2.0,5.0,77,0.00,,,0.04,Meteo,2013-11-09 21:56:00,
2013-11-09 16:01:00,39.0,32.0,29.79,SW,230,4.0,9.0,77,0.00,,,0.04,Meteo,2013-11-09 22:01:00,
2013-11-09 16:06:00,39.0,32.0,29.79,WSW,239,3.0,6.0,77,0.00,,,0.04,Meteo,2013-11-09 22:06:00,
2013-11-09 16:11:00,39.0,32.0,29.80,WSW,257,4.0,8.0,77,0.00,,,0.04,Meteo,2013-11-09 22:11:00,
2013-11-09 16:16:00,39.0,32.0,29.80,WSW,240,4.0,7.0,77,0.00,,,0.04,Meteo,2013-11-09 22:16:00,
2013-11-09 16:21:00,39.0,33.0,29.80,West,274,1.0,3.0,78,0.00,,,0.04,Meteo,2013-11-09 22:21:00,
2013-11-09 16:26:00,39.0,33.0,29.81,West,262,1.0,4.0,78,0.00,,,0.04,Meteo,2013-11-09 22:26:00,
2013-11-09 16:31:00,39.0,33.0,29.81,WSW,237,2.0,3.0,78,0.00,,,0.04,Meteo,2013-11-09 22:31:00,
2013-11-09 16:36:00,39.0,32.0,29.81,WNW,288,2.0,4.0,77,0.00,,,0.04,Meteo,2013-11-09 22:36:00,
2013-11-09 16:41:00,39.0,33.0,29.81,SW,224,3.0,4.0,78,0.00,,,0.04,Meteo,2013-11-09 22:41:00,
2013-11-09 16:46:00,39.0,33.0,29.81,SSW,205,2.0,4.0,78,0.00,,,0.04,Meteo,2013-11-09 22:46:00,
2013-11-09 16:51:00,39.0,33.0,29.81,West,272,2.0,4.0,78,0.00,,,0.04,Meteo,2013-11-09 22:51:00,
2013-11-09 16:56:00,39.0,33.0,29.82,WSW,249,2.0,4.0,78,0.00,,,0.04,Meteo,2013-11-09 22:56:00,
2013-11-09 17:01:00,39.0,33.0,29.82,SW,220,1.0,4.0,78,0.00,,,0.04,Meteo,2013-11-09 23:01:00,
2013-11-09 17:06:00,39.0,33.0,29.82,SW,222,3.0,4.0,79,0.00,,,0.04,Meteo,2013-11-09 23:06:00,
2013-11-09 17:11:00,39.0,33.0,29.82,WSW,242,3.0,4.0,79,0.00,,,0.04,Meteo,2013-11-09 23:11:00,
2013-11-09 17:16:00,39.0,33.0,29.83,WSW,252,2.0,4.0,80,0.00,,,0.04,Meteo,2013-11-09 23:16:00,
2013-11-09 17:21:00,39.0,33.0,29.83,SW,219,3.0,7.0,80,0.00,,,0.04,Meteo,2013-11-09 23:21:00,
2013-11-09 17:26:00,39.0,34.0,29.83,WSW,243,3.0,7.0,81,0.00,,,0.04,Meteo,2013-11-09 23:26:00,
2013-11-09 17:31:00,39.0,34.0,29.83,SW,217,2.0,8.0,81,0.00,,,0.04,Meteo,2013-11-09 23:31:00,
2013-11-09 17:36:00,39.0,34.0,29.83,WSW,254,4.0,9.0,81,0.00,,,0.04,Meteo,2013-11-09 23:36:00,
2013-11-09 17:41:00,38.0,33.0,29.84,WSW,254,3.0,6.0,81,0.00,,,0.04,Meteo,2013-11-09 23:41:00,
2013-11-09 17:46:00,38.0,33.0,29.84,WSW,248,5.0,12.0,81,0.00,,,0.04,Meteo,2013-11-09 23:46:00,
2013-11-09 17:51:00,38.0,33.0,29.84,WSW,258,2.0,6.0,82,0.00,,,0.04,Meteo,2013-11-09 23:51:00,
2013-11-09 17:56:00,38.0,33.0,29.85,WSW,251,6.0,10.0,82,0.00,,,0.04,Meteo,2013-11-09 23:56:00,
2013-11-09 18:01:00,38.0,33.0,29.85,SW,230,5.0,8.0,82,0.00,,,0.00,Meteo,2013-11-10 00:01:00,
2013-11-09 18:06:00,38.0,33.0,29.85,SW,235,4.0,8.0,83,0.00,,,0.00,Meteo,2013-11-10 00:06:00,
2013-11-09 18:11:00,38.0,33.0,29.86,WSW,248,5.0,9.0,83,0.00,,,0.00,Meteo,2013-11-10 00:11:00,
2013-11-09 18:17:00,38.0,33.0,29.86,WSW,258,3.0,10.0,83,0.00,,,0.00,Meteo,2013-11-10 00:17:00,
2013-11-09 18:22:00,38.0,33.0,29.86,WSW,244,6.0,12.0,82,0.00,,,0.00,Meteo,2013-11-10 00:22:00,
2013-11-09 18:27:00,38.0,33.0,29.86,West,259,2.0,6.0,82,0.00,,,0.00,Meteo,2013-11-10 00:27:00,
2013-11-09 18:32:00,38.0,33.0,29.86,WSW,251,4.0,7.0,82,0.00,,,0.00,Meteo,2013-11-10 00:32:00,
2013-11-09 18:37:00,38.0,33.0,29.87,West,259,5.0,11.0,81,0.00,,,0.00,Meteo,2013-11-10 00:37:00,
2013-11-09 18:42:00,38.0,33.0,29.87,SW,233,6.0,13.0,81,0.00,,,0.00,Meteo,2013-11-10 00:42:00,
2013-11-09 18:47:00,38.0,32.0,29.87,SW,231,2.0,3.0,80,0.00,,,0.00,Meteo,2013-11-10 00:47:00,
2013-11-09 18:52:00,38.0,32.0,29.87,WSW,256,2.0,4.0,80,0.00,,,0.00,Meteo,2013-11-10 00:52:00,
2013-11-09 18:57:00,38.0,32.0,29.87,WSW,247,5.0,9.0,80,0.00,,,0.00,Meteo,2013-11-10 00:57:00,
2013-11-09 19:02:00,38.0,32.0,29.87,WSW,257,4.0,9.0,79,0.00,,,0.00,Meteo,2013-11-10 01:02:00,
2013-11-09 19:07:00,38.0,32.0,29.88,WSW,254,6.0,14.0,78,0.00,,,0.00,Meteo,2013-11-10 01:07:00,
2013-11-09 19:13:00,38.0,32.0,29.88,West,264,4.0,7.0,79,0.00,,,0.00,Meteo,2013-11-10 01:13:00,
2013-11-09 19:18:00,38.0,32.0,29.88,WSW,249,2.0,6.0,78,0.00,,,0.00,Meteo,2013-11-10 01:18:00,
2013-11-09 19:23:00,38.0,32.0,29.88,West,281,2.0,4.0,78,0.00,,,0.00,Meteo,2013-11-10 01:23:00,
2013-11-09 19:28:00,38.0,32.0,29.88,SW,224,2.0,7.0,78,0.00,,,0.00,Meteo,2013-11-10 01:28:00,
2013-11-09 19:33:00,38.0,32.0,29.88,WSW,253,4.0,10.0,78,0.00,,,0.00,Meteo,2013-11-10 01:33:00,
2013-11-09 19:38:00,38.0,32.0,29.88,SSW,194,2.0,4.0,78,0.00,,,0.00,Meteo,2013-11-10 01:38:00,
2013-11-09 19:43:00,38.0,32.0,29.88,SW,214,1.0,3.0,78,0.00,,,0.00,Meteo,2013-11-10 01:43:00,
2013-11-09 19:48:00,38.0,32.0,29.88,SW,215,3.0,6.0,78,0.00,,,0.00,Meteo,2013-11-10 01:48:00,
2013-11-09 19:53:00,38.0,32.0,29.88,SSW,201,1.0,5.0,78,0.00,,,0.00,Meteo,2013-11-10 01:53:00,
2013-11-09 19:58:00,38.0,32.0,29.89,WNW,285,2.0,4.0,78,0.00,,,0.00,Meteo,2013-11-10 01:58:00,
2013-11-09 20:03:00,38.0,32.0,29.89,SSW,213,3.0,7.0,78,0.00,,,0.00,Meteo,2013-11-10 02:03:00,
2013-11-09 20:08:00,38.0,32.0,29.89,WNW,283,2.0,6.0,78,0.00,,,0.00,Meteo,2013-11-10 02:08:00,
2013-11-09 20:13:00,38.0,32.0,29.89,West,266,4.0,7.0,78,0.00,,,0.00,Meteo,2013-11-10 02:13:00,
2013-11-09 20:18:00,38.0,32.0,29.90,WSW,244,2.0,5.0,78,0.00,,,0.00,Meteo,2013-11-10 02:18:00,
2013-11-09 20:23:00,38.0,32.0,29.90,West,265,5.0,12.0,78,0.00,,,0.00,Meteo,2013-11-10 02:23:00,
2013-11-09 20:29:00,38.0,31.0,29.90,West,273,3.0,6.0,77,0.00,,,0.00,Meteo,2013-11-10 02:29:00,
2013-11-09 20:34:00,38.0,31.0,29.90,WNW,289,5.0,13.0,77,0.00,,,0.00,Meteo,2013-11-10 02:34:00,
2013-11-09 20:39:00,38.0,31.0,29.91,NW,305,2.0,4.0,77,0.00,,,0.00,Meteo,2013-11-10 02:39:00,
2013-11-09 20:44:00,38.0,31.0,29.91,SW,227,4.0,10.0,77,0.00,,,0.00,Meteo,2013-11-10 02:44:00,
2013-11-09 20:49:00,38.0,31.0,29.91,WSW,254,3.0,8.0,76,0.00,,,0.00,Meteo,2013-11-10 02:49:00,
2013-11-09 20:54:00,38.0,31.0,29.91,WNW,295,3.0,11.0,77,0.00,,,0.00,Meteo,2013-11-10 02:54:00,
2013-11-09 20:59:00,38.0,31.0,29.92,West,259,2.0,8.0,77,0.00,,,0.00,Meteo,2013-11-10 02:59:00,
2013-11-09 21:04:00,38.0,31.0,29.92,WSW,254,4.0,8.0,77,0.00,,,0.00,Meteo,2013-11-10 03:04:00,
2013-11-09 21:09:00,38.0,31.0,29.92,West,268,4.0,8.0,77,0.00,,,0.00,Meteo,2013-11-10 03:09:00,
2013-11-09 21:14:00,38.0,31.0,29.92,WSW,258,2.0,4.0,77,0.00,,,0.00,Meteo,2013-11-10 03:14:00,
2013-11-09 21:19:00,38.0,31.0,29.92,WSW,246,2.0,4.0,77,0.00,,,0.00,Meteo,2013-11-10 03:19:00,
2013-11-09 21:24:00,38.0,31.0,29.92,WSW,258,4.0,7.0,77,0.00,,,0.00,Meteo,2013-11-10 03:24:00,
2013-11-09 21:29:00,38.0,31.0,29.93,WNW,293,4.0,9.0,77,0.00,,,0.00,Meteo,2013-11-10 03:29:00,
2013-11-09 21:34:00,38.0,31.0,29.93,WSW,237,3.0,6.0,77,0.00,,,0.00,Meteo,2013-11-10 03:34:00,
2013-11-09 21:39:00,38.0,31.0,29.93,WNW,296,2.0,4.0,77,0.00,,,0.00,Meteo,2013-11-10 03:39:00,
2013-11-09 21:44:00,38.0,32.0,29.93,WNW,296,3.0,7.0,78,0.00,,,0.00,Meteo,2013-11-10 03:44:00,
2013-11-09 21:49:00,38.0,32.0,29.94,WSW,255,4.0,8.0,78,0.00,,,0.00,Meteo,2013-11-10 03:49:00,
2013-11-09 21:54:00,38.0,31.0,29.94,SW,229,3.0,8.0,77,0.00,,,0.00,Meteo,2013-11-10 03:54:00,
2013-11-09 21:59:00,38.0,31.0,29.94,West,267,4.0,9.0,77,0.00,,,0.00,Meteo,2013-11-10 03:59:00,
2013-11-09 22:04:00,38.0,32.0,29.94,West,264,2.0,5.0,78,0.00,,,0.00,Meteo,2013-11-10 04:04:00,
2013-11-09 22:09:00,38.0,32.0,29.94,West,272,4.0,7.0,78,0.00,,,0.00,Meteo,2013-11-10 04:09:00,
2013-11-09 22:14:00,38.0,32.0,29.94,WNW,290,3.0,6.0,78,0.00,,,0.00,Meteo,2013-11-10 04:14:00,
2013-11-09 22:19:00,38.0,32.0,29.94,WSW,254,3.0,8.0,78,0.00,,,0.00,Meteo,2013-11-10 04:19:00,
2013-11-09 22:24:00,38.0,32.0,29.95,WNW,285,1.0,2.0,78,0.00,,,0.00,Meteo,2013-11-10 04:24:00,
2013-11-09 22:29:00,38.0,32.0,29.95,WNW,286,3.0,6.0,78,0.00,,,0.00,Meteo,2013-11-10 04:29:00,
2013-11-09 22:34:00,38.0,32.0,29.95,West,267,1.0,3.0,79,0.00,,,0.00,Meteo,2013-11-10 04:34:00,
2013-11-09 22:39:00,38.0,32.0,29.95,West,268,5.0,11.0,79,0.00,,,0.00,Meteo,2013-11-10 04:39:00,
2013-11-09 22:44:00,38.0,32.0,29.96,West,259,3.0,6.0,79,0.00,,,0.00,Meteo,2013-11-10 04:44:00,
2013-11-09 22:49:00,38.0,32.0,29.96,WSW,257,2.0,6.0,79,0.00,,,0.00,Meteo,2013-11-10 04:49:00,
2013-11-09 22:54:00,38.0,32.0,29.96,West,281,2.0,6.0,79,0.00,,,0.00,Meteo,2013-11-10 04:54:00,
2013-11-09 22:59:00,38.0,32.0,29.96,WNW,286,4.0,7.0,79,0.00,,,0.00,Meteo,2013-11-10 04:59:00,
2013-11-09 23:01:00,38.0,32.0,29.96,NW,307,3.0,6.0,79,0.00,,,0.00,Meteo,2013-11-10 05:01:00,
2013-11-09 23:02:00,38.0,32.0,29.96,West,264,4.0,9.0,78,0.00,,,0.00,Meteo,2013-11-10 05:02:00,
2013-11-09 23:07:00,38.0,32.0,29.96,NW,316,3.0,6.0,78,0.00,,,0.00,Meteo,2013-11-10 05:07:00,
2013-11-09 23:12:00,38.0,32.0,29.96,WNW,292,3.0,6.0,79,0.00,,,0.00,Meteo,2013-11-10 05:12:00,
2013-11-09 23:15:00,38.0,32.0,29.96,West,274,3.0,6.0,79,0.00,,,0.00,Meteo,2013-11-10 05:15:00,
2013-11-09 23:20:00,38.0,32.0,29.97,WNW,286,3.0,4.0,79,0.00,,,0.00,Meteo,2013-11-10 05:20:00,
2013-11-09 23:23:00,38.0,32.0,29.96,West,273,1.0,2.0,79,0.00,,,0.00,Meteo,2013-11-10 05:23:00,
2013-11-09 23:28:00,38.0,32.0,29.97,West,271,3.0,5.0,79,0.00,,,0.00,Meteo,2013-11-10 05:28:00,
2013-11-09 23:33:00,38.0,32.0,29.97,West,259,3.0,5.0,79,0.00,,,0.00,Meteo,2013-11-10 05:33:00,
2013-11-09 23:38:00,38.0,32.0,29.98,WNW,298,2.0,9.0,78,0.00,,,0.00,Meteo,2013-11-10 05:38:00,
2013-11-09 23:43:00,38.0,32.0,29.98,West,279,2.0,4.0,78,0.00,,,0.00,Meteo,2013-11-10 05:43:00,
2013-11-09 23:48:00,39.0,33.0,29.98,WNW,295,5.0,9.0,78,0.00,,,0.00,Meteo,2013-11-10 05:48:00,
2013-11-09 23:53:00,39.0,32.0,29.98,WNW,288,4.0,10.0,77,0.00,,,0.00,Meteo,2013-11-10 05:53:00,
2013-11-09 23:58:00,39.0,32.0,29.99,WNW,297,5.0,10.0,76,0.00,,,0.00,Meteo,2013-11-10 05:58:00,